Time;durP1;ratioP1;P1;durP2;ratioP2;P2;SDS_P1;SDS_P2;PMS_P1;PMS_P2;Temp;Humidity;BMP_temperature;BMP_pressure;BME280_temperature;BME280_humidity;BME280_pressure;Samples;Min_cycle;Max_cycle;Signal;HPM_P1;HPM_P2
2022/08/05 00:00:59;;;;;;;3.78;1.80;;;15.70;82.70;;;;;;5058627;28;20658;-73
2022/08/05 00:03:26;;;;;;;11.57;1.50;;;15.70;82.70;;;;;;5047173;28;21385;-74
2022/08/05 00:05:53;;;;;;;2.83;2.05;;;15.70;82.60;;;;;;5039339;28;20487;-75
2022/08/05 00:08:19;;;;;;;9.18;1.83;;;15.70;82.60;;;;;;5045355;28;20458;-74
2022/08/05 00:10:46;;;;;;;19.23;3.58;;;15.70;82.70;;;;;;5045100;28;20025;-75
2022/08/05 00:13:12;;;;;;;1.90;1.15;;;15.70;82.80;;;;;;5056897;28;20044;-73
2022/08/05 00:15:39;;;;;;;2.83;1.55;;;15.70;82.60;;;;;;5047975;28;20074;-73
2022/08/05 00:18:05;;;;;;;1.90;1.10;;;15.70;82.30;;;;;;5044247;28;20082;-74
2022/08/05 00:20:32;;;;;;;1.63;1.23;;;15.60;82.00;;;;;;5042498;28;20026;-73
2022/08/05 00:22:58;;;;;;;1.33;0.88;;;15.70;81.90;;;;;;5043474;28;20021;-74
2022/08/05 00:25:25;;;;;;;3.05;1.23;;;15.60;81.70;;;;;;5046107;28;20013;-73
2022/08/05 00:27:51;;;;;;;2.25;0.90;;;15.60;81.80;;;;;;5042622;28;20041;-77
2022/08/05 00:30:17;;;;;;;2.88;0.88;;;15.70;81.80;;;;;;5041717;28;20154;-76
2022/08/05 00:32:44;;;;;;;3.97;1.00;;;15.60;81.60;;;;;;5042120;28;20024;-74
2022/08/05 00:35:11;;;;;;;4.05;1.00;;;15.60;81.60;;;;;;5048537;28;20025;-75
2022/08/05 00:37:37;;;;;;;2.20;1.08;;;15.60;81.40;;;;;;5047443;28;20024;-76
2022/08/05 00:40:04;;;;;;;2.25;0.98;;;15.60;81.40;;;;;;5042365;28;20034;-74
2022/08/05 00:42:33;;;;;;;2.25;0.90;;;15.60;81.40;;;;;;5041044;28;20029;-76
2022/08/05 00:45:01;;;;;;;4.10;0.90;;;15.60;81.30;;;;;;5041848;28;20025;-75
2022/08/05 00:47:27;;;;;;;2.83;0.90;;;15.60;81.30;;;;;;5045601;28;20029;-74
2022/08/05 00:49:54;;;;;;;5.05;0.90;;;15.60;81.40;;;;;;5043972;28;20539;-75
2022/08/05 00:52:21;;;;;;;1.75;1.00;;;15.50;81.40;;;;;;5043952;28;20372;-77
2022/08/05 00:54:48;;;;;;;1.30;0.90;;;15.50;81.40;;;;;;5041040;28;20036;-75
2022/08/05 00:57:15;;;;;;;1.38;0.95;;;15.50;81.40;;;;;;5043016;28;20052;-75
2022/08/05 00:59:42;;;;;;;2.05;1.02;;;15.50;81.30;;;;;;5057401;28;20028;-73
2022/08/05 01:02:08;;;;;;;2.00;1.00;;;15.50;81.20;;;;;;5044621;28;20029;-76
2022/08/05 01:04:35;;;;;;;2.35;1.10;;;15.50;81.20;;;;;;5041057;28;20035;-74
2022/08/05 01:07:01;;;;;;;6.10;1.38;;;15.50;81.20;;;;;;5037626;28;20033;-74
2022/08/05 01:09:28;;;;;;;9.63;1.40;;;15.50;81.70;;;;;;5043899;28;20085;-77
2022/08/05 01:11:58;;;;;;;9.27;1.40;;;15.60;82.40;;;;;;5045400;28;20506;-74
2022/08/05 01:14:30;;;;;;;7.43;1.80;;;15.60;82.80;;;;;;5045025;28;21055;-76
2022/08/05 01:17:04;;;;;;;9.82;2.53;;;15.60;83.10;;;;;;5038096;28;20039;-74
2022/08/05 01:19:34;;;;;;;7.07;1.38;;;15.60;83.10;;;;;;5042669;28;20050;-75
2022/08/05 01:22:12;;;;;;;2.78;1.33;;;15.60;82.80;;;;;;5040084;28;20033;-73
2022/08/05 01:24:48;;;;;;;3.80;1.30;;;15.60;82.40;;;;;;5054782;28;20399;-75
2022/08/05 01:27:42;;;;;;;15.00;1.98;;;15.60;82.30;;;;;;5040826;28;20033;-74
2022/08/05 01:30:09;;;;;;;4.35;1.17;;;15.60;82.40;;;;;;5043921;28;20039;-73
2022/08/05 01:32:40;;;;;;;1.48;1.10;;;15.60;82.40;;;;;;5037919;28;20131;-74
2022/08/05 01:35:10;;;;;;;4.95;1.40;;;15.60;82.30;;;;;;5039045;28;20020;-75
2022/08/05 01:37:53;;;;;;;3.10;1.00;;;15.60;82.10;;;;;;5038258;28;20067;-74
2022/08/05 01:40:25;;;;;;;16.88;1.42;;;15.60;82.00;;;;;;5040947;28;20120;-73
2022/08/05 01:42:52;;;;;;;2.63;1.30;;;15.60;82.00;;;;;;5045506;28;20086;-73
2022/08/05 01:45:20;;;;;;;1.33;0.98;;;15.60;81.90;;;;;;5042250;28;20047;-75
2022/08/05 01:47:50;;;;;;;2.25;0.98;;;15.60;81.70;;;;;;5041014;28;20044;-73
2022/08/05 01:50:30;;;;;;;1.95;1.08;;;15.60;81.70;;;;;;5037967;28;20029;-74
2022/08/05 01:53:05;;;;;;;3.00;1.27;;;15.50;81.50;;;;;;5042593;28;20032;-74
2022/08/05 01:55:34;;;;;;;1.33;1.20;;;15.50;81.50;;;;;;5039440;28;20028;-73
2022/08/05 01:58:01;;;;;;;5.78;1.20;;;15.60;81.50;;;;;;5041745;28;20013;-76
2022/08/05 02:00:30;;;;;;;4.13;1.10;;;15.50;81.60;;;;;;5043658;28;20065;-74
2022/08/05 02:03:26;;;;;;;1.48;0.80;;;15.50;81.60;;;;;;5041312;28;20021;-73
2022/08/05 02:05:54;;;;;;;2.10;1.15;;;15.50;81.70;;;;;;5037562;28;20032;-75
2022/08/05 02:08:21;;;;;;;1.50;0.80;;;15.50;81.70;;;;;;5042719;28;20029;-74
2022/08/05 02:10:56;;;;;;;1.58;0.98;;;15.50;81.70;;;;;;5038683;28;20029;-74
2022/08/05 02:13:57;;;;;;;3.78;0.90;;;15.60;81.90;;;;;;5044428;28;20036;-73
2022/08/05 02:16:33;;;;;;;1.73;1.05;;;15.50;81.80;;;;;;5040946;28;20048;-74
2022/08/05 02:19:13;;;;;;;1.30;0.93;;;15.50;81.80;;;;;;5037511;28;20047;-74
2022/08/05 02:21:48;;;;;;;2.05;1.13;;;15.60;81.90;;;;;;5044224;28;20029;-75
2022/08/05 02:24:19;;;;;;;2.15;1.05;;;15.60;82.10;;;;;;5039926;28;20017;-73
2022/08/05 02:26:55;;;;;;;1.10;1.00;;;15.50;82.10;;;;;;5041829;28;20476;-74
2022/08/05 02:29:25;;;;;;;1.02;0.90;;;15.50;82.00;;;;;;5046806;28;20029;-74
2022/08/05 02:31:56;;;;;;;4.03;0.93;;;15.50;81.90;;;;;;5042973;28;20026;-73
2022/08/05 02:34:26;;;;;;;3.28;2.03;;;15.50;81.80;;;;;;5045045;28;20030;-73
2022/08/05 02:36:56;;;;;;;21.52;7.05;;;15.60;81.90;;;;;;5046380;28;20109;-73
2022/08/05 02:39:26;;;;;;;17.02;12.05;;;15.50;82.40;;;;;;5062801;28;20022;-73
2022/08/05 02:41:55;;;;;;;15.05;11.90;;;15.50;83.20;;;;;;5044194;28;20462;-74
2022/08/05 02:44:24;;;;;;;16.52;6.38;;;15.60;83.50;;;;;;5044975;28;20021;-73
2022/08/05 02:46:54;;;;;;;8.95;3.80;;;15.60;83.70;;;;;;5043953;28;20484;-74
2022/08/05 02:49:21;;;;;;;17.33;3.47;;;15.60;83.80;;;;;;5043586;28;20119;-73
2022/08/05 02:51:49;;;;;;;3.47;1.50;;;15.60;84.10;;;;;;5043877;28;20029;-73
2022/08/05 02:54:17;;;;;;;3.05;1.85;;;15.60;84.00;;;;;;5039250;28;20023;-73
2022/08/05 02:56:44;;;;;;;7.50;1.83;;;15.60;83.50;;;;;;5052177;28;20083;-75
2022/08/05 02:59:12;;;;;;;9.25;1.23;;;15.60;83.10;;;;;;5044521;28;20418;-74
2022/08/05 03:01:40;;;;;;;3.13;1.30;;;15.60;82.90;;;;;;5045556;28;20025;-73
2022/08/05 03:04:10;;;;;;;2.72;0.95;;;15.50;82.80;;;;;;5046925;28;20056;-76
2022/08/05 03:06:38;;;;;;;1.92;1.02;;;15.50;82.60;;;;;;5042617;28;20496;-74
2022/08/05 03:09:05;;;;;;;1.90;0.82;;;15.60;82.60;;;;;;5046992;28;20063;-74
2022/08/05 03:11:31;;;;;;;5.13;1.23;;;15.50;82.50;;;;;;5048796;28;20575;-73
2022/08/05 03:13:58;;;;;;;2.15;1.67;;;15.50;82.40;;;;;;5043416;28;20025;-74
2022/08/05 03:16:24;;;;;;;2.42;0.75;;;15.50;82.40;;;;;;5044281;28;20021;-75
2022/08/05 03:18:51;;;;;;;5.07;1.35;;;15.50;82.40;;;;;;5044600;28;20068;-74
2022/08/05 03:21:17;;;;;;;4.53;0.80;;;15.50;82.40;;;;;;5047180;28;20029;-75
2022/08/05 03:23:44;;;;;;;3.53;1.02;;;15.50;82.40;;;;;;5050694;28;20021;-73
2022/08/05 03:26:11;;;;;;;1.83;0.73;;;15.50;82.50;;;;;;5044587;28;20043;-73
2022/08/05 03:28:38;;;;;;;4.28;1.67;;;15.50;82.50;;;;;;5043316;28;20044;-73
2022/08/05 03:31:44;;;;;;;4.60;1.30;;;15.50;82.40;;;;;;5041838;28;20032;-74
2022/08/05 03:34:10;;;;;;;16.20;9.20;;;15.50;82.50;;;;;;5041202;28;20030;-74
2022/08/05 03:36:37;;;;;;;25.15;13.50;;;15.50;83.10;;;;;;5042881;28;20028;-74
2022/08/05 03:39:07;;;;;;;15.75;8.88;;;15.50;83.10;;;;;;5043505;28;20108;-74
2022/08/05 03:41:34;;;;;;;5.75;4.47;;;15.50;83.10;;;;;;5046428;28;20033;-75
2022/08/05 03:44:01;;;;;;;3.20;2.90;;;15.50;83.20;;;;;;5039684;28;20090;-73
2022/08/05 03:46:27;;;;;;;6.07;2.28;;;15.40;83.10;;;;;;5038292;28;20132;-74
2022/08/05 03:48:54;;;;;;;1.90;1.70;;;15.40;83.10;;;;;;5042437;28;20048;-75
2022/08/05 03:51:34;;;;;;;4.15;1.20;;;15.40;82.90;;;;;;5038499;28;20029;-74
2022/08/05 03:54:35;;;;;;;0.80;0.80;;;15.40;82.80;;;;;;5035459;28;20028;-74
2022/08/05 03:57:04;;;;;;;1.45;1.25;;;15.40;82.80;;;;;;5040271;28;20446;-76
2022/08/05 03:59:54;;;;;;;3.08;1.15;;;15.40;82.80;;;;;;5039582;28;20025;-74
2022/08/05 04:02:27;;;;;;;3.50;0.85;;;15.40;82.80;;;;;;5036832;28;20030;-74
2022/08/05 04:04:55;;;;;;;2.67;1.98;;;15.40;82.80;;;;;;5022306;28;20534;-73
2022/08/05 04:07:22;;;;;;;1.42;1.13;;;15.40;82.70;;;;;;5041043;28;20400;-74
2022/08/05 04:09:49;;;;;;;6.70;0.98;;;15.40;82.70;;;;;;5041983;28;20057;-72
2022/08/05 04:12:16;;;;;;;2.80;1.50;;;15.40;82.70;;;;;;5056365;28;20379;-72
2022/08/05 04:14:43;;;;;;;4.55;1.40;;;15.40;83.20;;;;;;5044527;28;20055;-72
2022/08/05 04:17:10;;;;;;;2.80;1.65;;;15.40;84.10;;;;;;5035672;28;20109;-71
2022/08/05 04:19:45;;;;;;;13.45;11.95;;;15.50;84.10;;;;;;5040029;28;20060;-72
2022/08/05 04:22:12;;;;;;;13.63;12.10;;;15.50;83.80;;;;;;5044546;28;20035;-71
2022/08/05 04:24:40;;;;;;;8.43;7.13;;;15.50;83.70;;;;;;5041944;28;20013;-73
2022/08/05 04:27:07;;;;;;;5.25;4.63;;;15.50;83.60;;;;;;5044464;28;20865;-77
2022/08/05 04:29:33;;;;;;;5.32;2.85;;;15.40;83.50;;;;;;5040513;28;20029;-75
2022/08/05 04:32:00;;;;;;;2.92;2.50;;;15.40;83.40;;;;;;5034063;28;20487;-74
2022/08/05 04:34:26;;;;;;;2.90;1.80;;;15.40;83.30;;;;;;5042309;28;20029;-74
2022/08/05 04:36:53;;;;;;;12.02;7.82;;;15.40;83.20;;;;;;5043385;28;20021;-74
2022/08/05 04:39:37;;;;;;;14.38;10.25;;;15.30;83.20;;;;;;5041394;28;20013;-74
2022/08/05 04:42:04;;;;;;;10.60;7.75;;;15.40;83.80;;;;;;5046167;28;20412;-73
2022/08/05 04:44:31;;;;;;;6.82;5.32;;;15.40;84.70;;;;;;5037637;28;20029;-73
2022/08/05 04:47:00;;;;;;;4.10;2.83;;;15.40;83.90;;;;;;5056092;28;20140;-73
2022/08/05 04:50:07;;;;;;;5.15;2.40;;;15.40;83.80;;;;;;5043094;28;20013;-73
2022/08/05 04:53:13;;;;;;;4.93;1.38;;;15.40;83.60;;;;;;5036044;28;20034;-73
2022/08/05 04:56:19;;;;;;;1.65;1.45;;;15.40;83.40;;;;;;5056907;28;20021;-73
2022/08/05 04:59:25;;;;;;;2.65;1.40;;;15.40;83.40;;;;;;5044071;28;20108;-74
2022/08/05 05:02:31;;;;;;;3.88;1.00;;;15.30;83.40;;;;;;5042967;28;20032;-73
2022/08/05 05:05:37;;;;;;;1.98;1.35;;;15.40;83.50;;;;;;5041116;28;20029;-73
2022/08/05 05:08:43;;;;;;;1.52;1.23;;;15.30;83.50;;;;;;5041201;28;20087;-73
2022/08/05 05:11:49;;;;;;;2.13;1.15;;;15.40;83.50;;;;;;5044522;28;20025;-73
2022/08/05 05:14:16;;;;;;;3.25;1.35;;;15.30;83.40;;;;;;5038657;28;20026;-73
2022/08/05 05:16:43;;;;;;;2.67;1.55;;;15.30;83.40;;;;;;5039445;28;20428;-76
2022/08/05 05:19:10;;;;;;;1.50;1.13;;;15.30;83.40;;;;;;5041543;28;20116;-76
2022/08/05 05:21:36;;;;;;;1.45;0.88;;;15.30;83.50;;;;;;5040070;28;20037;-75
2022/08/05 05:24:03;;;;;;;3.90;2.28;;;15.30;83.60;;;;;;5042171;28;20372;-75
2022/08/05 05:26:30;;;;;;;13.77;4.68;;;15.30;83.60;;;;;;5040894;28;20039;-76
2022/08/05 05:28:56;;;;;;;7.18;4.32;;;15.30;83.80;;;;;;5041686;28;20028;-73
2022/08/05 05:31:25;;;;;;;5.18;4.05;;;15.30;83.70;;;;;;5041076;28;20123;-76
2022/08/05 05:33:52;;;;;;;7.15;3.17;;;15.30;83.70;;;;;;5040121;28;20828;-75
2022/08/05 05:36:19;;;;;;;5.55;2.72;;;15.30;83.70;;;;;;5041429;28;20028;-75
2022/08/05 05:38:45;;;;;;;5.15;1.92;;;15.30;84.00;;;;;;5038810;28;20109;-73
2022/08/05 05:41:12;;;;;;;6.28;3.20;;;15.30;84.40;;;;;;5042178;28;20099;-73
2022/08/05 05:43:38;;;;;;;3.63;1.92;;;15.40;84.60;;;;;;5040782;28;20516;-76
2022/08/05 05:46:05;;;;;;;14.13;2.38;;;15.30;85.10;;;;;;5039194;28;20375;-74
2022/08/05 05:48:31;;;;;;;5.85;2.20;;;15.30;84.80;;;;;;5041824;28;20511;-73
2022/08/05 05:50:58;;;;;;;2.45;1.42;;;15.30;84.80;;;;;;5038956;28;20091;-75
2022/08/05 05:53:24;;;;;;;1.35;1.25;;;15.30;84.80;;;;;;5042792;28;20110;-73
2022/08/05 05:55:51;;;;;;;6.88;2.78;;;15.30;85.10;;;;;;5041667;28;20067;-72
2022/08/05 05:58:17;;;;;;;10.70;4.78;;;15.30;85.50;;;;;;5044251;28;20061;-77
2022/08/05 06:00:44;;;;;;;9.10;5.68;;;15.30;85.80;;;;;;5044235;28;20033;-74
2022/08/05 06:03:10;;;;;;;7.50;3.40;;;15.30;86.20;;;;;;5039200;28;20057;-73
2022/08/05 06:05:37;;;;;;;4.05;2.55;;;15.30;86.30;;;;;;5043365;28;20017;-75
2022/08/05 06:08:03;;;;;;;4.82;2.20;;;15.30;86.60;;;;;;5044398;28;20041;-73
2022/08/05 06:10:30;;;;;;;2.38;1.65;;;15.30;86.60;;;;;;5042595;28;20028;-72
2022/08/05 06:12:56;;;;;;;1.80;1.63;;;15.30;86.80;;;;;;5039654;28;20025;-73
2022/08/05 06:15:23;;;;;;;3.00;1.67;;;15.30;87.20;;;;;;5041165;28;20044;-72
2022/08/05 06:17:49;;;;;;;2.25;1.88;;;15.30;87.50;;;;;;5042008;28;20073;-73
2022/08/05 06:20:16;;;;;;;2.13;1.73;;;15.30;87.70;;;;;;5037916;28;20095;-72
2022/08/05 06:22:42;;;;;;;2.92;2.13;;;15.30;87.90;;;;;;5042512;28;20017;-71
2022/08/05 06:25:09;;;;;;;3.97;1.95;;;15.30;88.10;;;;;;5041586;28;20017;-74
2022/08/05 06:27:36;;;;;;;4.85;1.90;;;15.30;88.30;;;;;;5038582;28;20037;-71
2022/08/05 06:30:03;;;;;;;3.05;1.65;;;15.30;89.00;;;;;;5043785;28;20037;-71
2022/08/05 06:32:30;;;;;;;6.30;2.08;;;15.30;89.40;;;;;;5047350;28;20017;-71
2022/08/05 06:34:59;;;;;;;5.07;1.92;;;15.30;89.80;;;;;;5041261;28;20555;-71
2022/08/05 06:37:27;;;;;;;5.47;2.33;;;15.30;90.30;;;;;;5049013;28;20941;-71
2022/08/05 06:39:53;;;;;;;6.95;1.92;;;15.40;90.80;;;;;;5037891;28;20025;-71
2022/08/05 06:42:20;;;;;;;7.60;1.90;;;15.40;91.20;;;;;;5042594;28;20024;-71
2022/08/05 06:44:47;;;;;;;5.00;1.95;;;15.40;91.30;;;;;;5040473;28;20025;-74
2022/08/05 06:47:13;;;;;;;4.28;3.17;;;15.40;91.40;;;;;;5040985;28;20026;-72
2022/08/05 06:49:40;;;;;;;4.30;2.10;;;15.40;91.40;;;;;;5041752;28;20037;-72
2022/08/05 06:52:06;;;;;;;2.13;1.92;;;15.40;91.40;;;;;;5039833;28;20029;-74
2022/08/05 06:54:33;;;;;;;6.72;3.22;;;15.40;91.60;;;;;;5043217;28;20026;-72
2022/08/05 06:56:59;;;;;;;6.30;2.65;;;15.40;91.80;;;;;;5040473;28;20025;-72
2022/08/05 06:59:26;;;;;;;2.97;2.15;;;15.40;91.90;;;;;;5046164;28;20591;-71
2022/08/05 07:01:52;;;;;;;4.28;2.20;;;15.40;92.00;;;;;;5040803;28;20033;-72
2022/08/05 07:04:18;;;;;;;8.05;2.67;;;15.40;91.90;;;;;;5043339;28;20043;-71
2022/08/05 07:06:45;;;;;;;4.03;2.40;;;15.40;91.80;;;;;;5042249;28;20062;-72
2022/08/05 07:09:11;;;;;;;3.55;2.30;;;15.40;91.90;;;;;;5039200;28;20052;-71
2022/08/05 07:11:38;;;;;;;2.45;2.13;;;15.40;92.10;;;;;;5045110;28;20017;-72
2022/08/05 07:16:50;;;;;;;8.40;2.78;;;15.40;92.30;;;;;;5048066;28;20158;-73
2022/08/05 07:19:18;;;;;;;3.85;2.65;;;15.40;92.30;;;;;;5038639;28;20049;-72
2022/08/05 07:21:45;;;;;;;4.13;2.47;;;15.40;92.30;;;;;;5049248;28;20028;-71
2022/08/05 07:24:12;;;;;;;4.63;2.35;;;15.50;92.40;;;;;;5042053;28;20036;-72
2022/08/05 07:26:40;;;;;;;2.58;2.38;;;15.50;92.40;;;;;;5036288;28;20021;-72
2022/08/05 07:29:07;;;;;;;6.25;2.88;;;15.50;92.40;;;;;;5044664;28;20490;-72
2022/08/05 07:31:34;;;;;;;5.40;2.08;;;15.50;92.40;;;;;;5045497;28;20052;-71
2022/08/05 07:34:00;;;;;;;4.22;2.63;;;15.50;92.40;;;;;;5043888;28;20029;-73
2022/08/05 07:36:27;;;;;;;3.75;2.72;;;15.50;92.40;;;;;;5043965;28;20036;-72
2022/08/05 07:38:53;;;;;;;3.22;2.70;;;15.50;92.40;;;;;;5048862;28;20040;-72
2022/08/05 07:41:22;;;;;;;2.80;2.35;;;15.60;92.40;;;;;;5041622;28;20017;-74
2022/08/05 07:43:49;;;;;;;4.18;2.50;;;15.60;92.50;;;;;;5043500;28;20024;-72
2022/08/05 07:46:15;;;;;;;3.10;2.60;;;15.60;92.50;;;;;;5041887;28;20033;-72
2022/08/05 07:48:42;;;;;;;1.98;1.85;;;15.60;92.50;;;;;;5042808;28;20037;-75
2022/08/05 07:51:08;;;;;;;9.15;3.28;;;15.60;92.50;;;;;;5046323;28;20026;-72
2022/08/05 07:53:36;;;;;;;5.32;2.70;;;15.70;92.60;;;;;;5041800;28;20013;-72
2022/08/05 07:56:03;;;;;;;6.40;3.38;;;15.70;92.60;;;;;;5042812;28;20021;-73
2022/08/05 07:58:30;;;;;;;2.55;2.20;;;15.70;92.70;;;;;;5042988;28;20545;-72
2022/08/05 08:00:56;;;;;;;2.65;2.10;;;15.70;92.70;;;;;;5041671;28;20029;-73
2022/08/05 08:03:23;;;;;;;3.15;2.13;;;15.80;92.70;;;;;;5049786;28;20021;-74
2022/08/05 08:05:51;;;;;;;3.83;2.00;;;15.80;92.70;;;;;;5049541;28;20020;-73
2022/08/05 08:08:18;;;;;;;4.15;1.65;;;15.80;92.80;;;;;;5049750;28;20555;-74
2022/08/05 08:10:45;;;;;;;2.05;1.35;;;15.80;92.90;;;;;;5028606;28;20391;-72
2022/08/05 08:13:12;;;;;;;2.65;1.58;;;15.80;93.00;;;;;;5040413;28;20022;-75
2022/08/05 08:15:38;;;;;;;3.55;1.85;;;15.80;93.10;;;;;;5044728;28;20295;-72
2022/08/05 08:18:05;;;;;;;2.45;1.30;;;15.80;93.10;;;;;;5042847;28;20137;-73
2022/08/05 08:20:31;;;;;;;2.45;2.08;;;15.90;93.30;;;;;;5049256;28;20119;-72
2022/08/05 08:23:01;;;;;;;2.35;1.75;;;15.90;93.30;;;;;;5022072;28;20518;-76
2022/08/05 08:25:28;;;;;;;1.95;1.85;;;15.90;93.40;;;;;;5043322;28;20017;-74
2022/08/05 08:27:55;;;;;;;2.17;1.98;;;16.00;93.40;;;;;;5040678;28;20049;-73
2022/08/05 08:30:22;;;;;;;2.08;1.40;;;16.00;93.50;;;;;;5044412;28;20116;-73
2022/08/05 08:32:48;;;;;;;3.05;1.40;;;16.10;93.60;;;;;;5042561;28;20105;-74
2022/08/05 08:35:15;;;;;;;1.80;1.40;;;16.10;93.60;;;;;;5045455;28;20446;-75
2022/08/05 08:37:41;;;;;;;1.80;1.48;;;16.10;93.60;;;;;;5051964;28;20063;-75
2022/08/05 08:40:08;;;;;;;9.18;2.60;;;16.20;93.70;;;;;;5037163;28;20020;-76
2022/08/05 08:42:35;;;;;;;5.18;2.25;;;16.20;93.70;;;;;;5046351;28;20017;-73
2022/08/05 08:45:03;;;;;;;6.75;1.98;;;16.30;93.80;;;;;;5046576;28;20021;-75
2022/08/05 08:47:30;;;;;;;5.28;2.70;;;16.30;93.70;;;;;;5042460;28;20038;-75
2022/08/05 08:49:58;;;;;;;4.20;1.60;;;16.30;93.60;;;;;;5040609;28;20076;-75
2022/08/05 08:52:31;;;;;;;1.83;1.70;;;16.30;93.40;;;;;;5039868;28;20087;-77
2022/08/05 08:54:57;;;;;;;2.75;1.58;;;16.40;93.30;;;;;;5044727;28;20059;-75
2022/08/05 08:57:25;;;;;;;2.33;1.40;;;16.40;93.20;;;;;;5044320;28;20101;-75
2022/08/05 08:59:52;;;;;;;3.85;1.60;;;16.40;93.10;;;;;;5038687;28;20021;-76
2022/08/05 09:02:20;;;;;;;3.20;1.52;;;16.40;92.90;;;;;;5043779;28;20270;-76
2022/08/05 09:04:47;;;;;;;2.15;1.38;;;16.40;92.80;;;;;;5031585;28;20017;-74
2022/08/05 09:07:13;;;;;;;1.88;1.50;;;16.50;92.70;;;;;;5039153;28;20068;-74
2022/08/05 09:09:41;;;;;;;3.83;1.38;;;16.50;92.60;;;;;;5045696;28;20371;-76
2022/08/05 09:12:09;;;;;;;1.85;1.27;;;16.50;92.50;;;;;;5042713;28;20491;-74
2022/08/05 09:14:36;;;;;;;4.05;1.90;;;16.50;92.50;;;;;;5043598;28;20017;-73
2022/08/05 09:17:11;;;;;;;3.80;1.60;;;16.50;92.80;;;;;;5043442;28;20534;-73
2022/08/05 09:19:38;;;;;;;2.90;1.38;;;16.60;92.80;;;;;;5050587;28;20499;-73
2022/08/05 09:22:07;;;;;;;2.65;1.73;;;16.60;92.80;;;;;;5047806;28;20044;-76
2022/08/05 09:24:38;;;;;;;3.30;1.75;;;16.60;92.70;;;;;;5039172;28;20021;-75
2022/08/05 09:27:08;;;;;;;2.75;1.90;;;16.70;92.70;;;;;;5039843;28;20025;-76
2022/08/05 09:29:44;;;;;;;7.72;2.50;;;16.70;92.70;;;;;;5041972;28;20461;-76
2022/08/05 09:32:12;;;;;;;7.07;1.65;;;16.70;92.60;;;;;;5043577;28;20025;-75
2022/08/05 09:34:54;;;;;;;6.68;1.80;;;16.70;92.50;;;;;;5039047;28;20488;-76
2022/08/05 09:37:26;;;;;;;5.03;1.80;;;16.70;92.50;;;;;;5045103;28;20681;-74
2022/08/05 09:39:52;;;;;;;3.42;1.80;;;16.70;92.40;;;;;;5039760;28;20043;-73
2022/08/05 09:42:21;;;;;;;5.80;1.90;;;16.70;92.30;;;;;;5041149;28;20075;-76
2022/08/05 09:44:50;;;;;;;2.78;1.98;;;16.70;92.20;;;;;;5038538;28;20397;-76
2022/08/05 09:47:25;;;;;;;4.45;2.08;;;16.70;92.10;;;;;;5059923;28;20422;-76
2022/08/05 09:49:56;;;;;;;2.47;1.92;;;16.70;92.00;;;;;;5042230;28;20028;-76
2022/08/05 09:52:28;;;;;;;6.30;2.67;;;16.70;92.00;;;;;;5045430;28;20032;-74
2022/08/05 09:54:59;;;;;;;2.78;1.65;;;16.60;91.80;;;;;;5046131;28;20024;-75
2022/08/05 09:57:34;;;;;;;2.58;1.48;;;16.60;91.80;;;;;;5043074;28;20029;-73
2022/08/05 10:00:24;;;;;;;4.95;1.70;;;16.70;91.70;;;;;;5041532;28;20032;-74
2022/08/05 10:02:53;;;;;;;6.93;1.15;;;16.70;91.60;;;;;;5039774;28;20124;-77
2022/08/05 10:05:24;;;;;;;2.85;0.60;;;16.70;91.60;;;;;;5042844;28;20052;-74
2022/08/05 10:07:57;;;;;;;1.75;1.30;;;16.70;91.60;;;;;;5039918;28;20048;-76
2022/08/05 10:10:38;;;;;;;2.97;0.90;;;16.80;91.50;;;;;;5048836;28;20021;-75
2022/08/05 10:13:05;;;;;;;2.28;1.00;;;16.80;91.40;;;;;;5042044;28;20025;-76
2022/08/05 10:15:35;;;;;;;0.68;0.50;;;17.00;91.40;;;;;;5040685;28;20014;-76
2022/08/05 10:18:05;;;;;;;8.43;3.15;;;17.00;91.20;;;;;;5048396;28;20071;-74
2022/08/05 10:20:33;;;;;;;5.40;2.80;;;17.10;91.20;;;;;;5037273;28;20029;-73
2022/08/05 10:23:01;;;;;;;15.07;1.55;;;17.20;91.10;;;;;;5043324;28;20075;-74
2022/08/05 10:25:27;;;;;;;4.25;0.60;;;17.20;91.00;;;;;;5037775;28;20025;-73
2022/08/05 10:27:54;;;;;;;1.27;0.32;;;17.30;90.70;;;;;;5040890;28;20083;-73
2022/08/05 10:30:21;;;;;;;6.65;0.70;;;17.30;90.60;;;;;;5036128;28;20364;-73
2022/08/05 10:32:48;;;;;;;6.68;0.60;;;17.40;90.10;;;;;;5041654;28;20379;-73
2022/08/05 10:35:15;;;;;;;5.50;0.85;;;17.50;89.50;;;;;;5037800;28;20053;-73
2022/08/05 10:37:43;;;;;;;1.00;0.35;;;17.60;89.20;;;;;;5048867;28;20850;-74
2022/08/05 10:40:24;;;;;;;3.42;0.55;;;17.60;88.60;;;;;;5041919;28;20021;-73
2022/08/05 10:42:53;;;;;;;12.68;0.75;;;17.70;88.20;;;;;;5045698;28;20028;-74
2022/08/05 10:45:27;;;;;;;6.63;0.77;;;17.80;88.10;;;;;;5037059;28;20029;-73
2022/08/05 10:47:54;;;;;;;4.20;0.53;;;17.80;87.30;;;;;;5043757;28;20073;-76
2022/08/05 10:50:20;;;;;;;1.33;0.50;;;17.90;86.70;;;;;;5040193;28;20044;-73
2022/08/05 10:52:55;;;;;;;1.25;0.80;;;18.00;86.50;;;;;;5042866;28;20021;-74
2022/08/05 10:55:23;;;;;;;1.48;0.60;;;18.00;86.00;;;;;;5042672;28;20025;-73
2022/08/05 10:58:08;;;;;;;1.60;0.30;;;18.00;85.70;;;;;;5049824;28;20413;-73
2022/08/05 11:00:35;;;;;;;0.43;0.40;;;18.00;85.40;;;;;;5050320;28;20024;-73
2022/08/05 11:03:11;;;;;;;4.10;0.63;;;18.10;85.20;;;;;;5045446;28;20033;-74
2022/08/05 11:05:38;;;;;;;4.40;1.13;;;18.10;85.00;;;;;;5047303;28;20475;-73
2022/08/05 11:08:07;;;;;;;1.90;0.80;;;18.10;84.90;;;;;;5045321;28;20037;-73
2022/08/05 11:10:36;;;;;;;5.50;0.50;;;18.20;84.80;;;;;;5040469;28;20017;-74
2022/08/05 11:13:03;;;;;;;1.08;0.43;;;18.20;84.30;;;;;;5044677;28;20486;-74
2022/08/05 11:15:42;;;;;;;4.68;1.25;;;18.30;84.00;;;;;;5044262;28;20032;-73
2022/08/05 11:18:23;;;;;;;0.65;0.43;;;18.30;83.40;;;;;;5045335;28;20029;-74
2022/08/05 11:20:50;;;;;;;2.50;0.80;;;18.40;83.20;;;;;;5041201;28;20462;-73
2022/08/05 11:23:29;;;;;;;1.42;0.32;;;18.40;83.10;;;;;;5048747;28;20033;-73
2022/08/05 11:26:06;;;;;;;1.58;0.50;;;18.40;82.80;;;;;;5046037;28;20507;-74
2022/08/05 11:28:32;;;;;;;5.32;0.90;;;18.40;82.30;;;;;;5046044;28;20040;-74
2022/08/05 11:31:02;;;;;;;7.47;0.85;;;18.40;82.20;;;;;;5044143;28;20083;-72
2022/08/05 11:33:37;;;;;;;13.98;3.38;;;18.30;82.30;;;;;;5046907;28;20408;-73
2022/08/05 11:36:09;;;;;;;5.30;1.50;;;18.30;82.90;;;;;;5038322;28;20025;-75
2022/08/05 11:38:41;;;;;;;2.33;0.80;;;18.30;83.40;;;;;;5044570;28;20027;-73
2022/08/05 11:41:27;;;;;;;12.15;1.48;;;18.20;83.50;;;;;;5042845;28;20387;-73
2022/08/05 11:44:01;;;;;;;2.90;1.00;;;18.20;83.50;;;;;;5046256;28;20027;-74
2022/08/05 11:46:28;;;;;;;1.27;1.00;;;18.20;83.40;;;;;;5043405;28;20021;-73
2022/08/05 11:48:56;;;;;;;2.72;0.98;;;18.20;83.20;;;;;;5045071;28;20398;-75
2022/08/05 11:51:24;;;;;;;0.52;0.30;;;18.20;83.10;;;;;;5040901;28;20022;-73
2022/08/05 11:53:51;;;;;;;2.17;0.30;;;18.20;82.80;;;;;;5059495;28;20104;-74
2022/08/05 11:56:18;;;;;;;3.13;0.50;;;18.30;82.30;;;;;;5043042;28;20024;-73
2022/08/05 11:58:47;;;;;;;0.63;0.50;;;18.30;81.70;;;;;;5046804;28;20031;-74
2022/08/05 12:01:16;;;;;;;2.08;1.55;;;18.40;81.00;;;;;;5038055;28;20017;-73
2022/08/05 12:03:50;;;;;;;1.98;0.40;;;18.50;80.30;;;;;;5039939;28;20021;-75
2022/08/05 12:06:19;;;;;;;0.82;0.40;;;18.50;80.10;;;;;;5037884;28;20039;-73
2022/08/05 12:08:57;;;;;;;2.00;0.57;;;18.60;80.50;;;;;;5044385;28;20040;-73
2022/08/05 12:11:29;;;;;;;1.15;0.40;;;18.60;80.40;;;;;;5036523;28;20120;-76
2022/08/05 12:13:58;;;;;;;2.22;0.43;;;18.70;80.30;;;;;;5041958;28;20140;-74
2022/08/05 12:16:31;;;;;;;1.65;0.55;;;18.80;80.20;;;;;;5043331;28;20108;-73
2022/08/05 12:18:57;;;;;;;2.88;0.57;;;18.90;80.20;;;;;;5040690;28;20045;-73
2022/08/05 12:21:29;;;;;;;5.13;1.13;;;18.90;79.90;;;;;;5046813;28;20028;-73
2022/08/05 12:24:04;;;;;;;3.35;1.77;;;19.00;80.10;;;;;;5037889;28;20032;-73
2022/08/05 12:26:34;;;;;;;2.53;0.68;;;19.10;80.00;;;;;;5043872;28;20040;-73
2022/08/05 12:29:06;;;;;;;2.45;0.80;;;19.10;79.40;;;;;;5044585;28;20041;-76
2022/08/05 12:31:33;;;;;;;0.90;0.50;;;19.20;78.90;;;;;;5042969;28;20028;-74
2022/08/05 12:34:06;;;;;;;0.75;0.38;;;19.20;78.30;;;;;;5036722;28;20029;-73
2022/08/05 12:36:34;;;;;;;1.67;0.25;;;19.20;78.00;;;;;;5050221;28;20092;-73
2022/08/05 12:39:02;;;;;;;1.67;0.60;;;19.20;78.20;;;;;;5042936;28;20074;-73
2022/08/05 12:41:34;;;;;;;2.10;0.40;;;19.30;78.30;;;;;;5042043;28;20021;-73
2022/08/05 12:44:07;;;;;;;2.95;0.52;;;19.30;78.60;;;;;;5035404;28;20014;-73
2022/08/05 12:46:35;;;;;;;1.92;0.43;;;19.30;78.50;;;;;;5043862;28;20021;-74
2022/08/05 12:49:13;;;;;;;2.08;0.70;;;19.30;78.20;;;;;;5038312;28;20037;-73
2022/08/05 12:51:56;;;;;;;3.88;0.70;;;19.30;78.00;;;;;;5045481;28;20411;-75
2022/08/05 12:54:28;;;;;;;3.40;0.93;;;19.30;78.30;;;;;;5037998;28;20051;-74
2022/08/05 12:57:05;;;;;;;2.20;0.47;;;19.40;79.00;;;;;;5034439;28;20426;-77
2022/08/05 12:59:53;;;;;;;3.85;0.47;;;19.40;78.70;;;;;;5044621;28;20027;-74
2022/08/05 13:02:27;;;;;;;1.92;0.60;;;19.40;78.40;;;;;;5044760;28;20075;-74
2022/08/05 13:04:54;;;;;;;0.55;0.55;;;19.40;78.20;;;;;;5042022;28;20024;-73